Etusivu
METAR-TAF:

METAR-TAF

Lentoasemat :

Red Deer, Alberta, Kanada

Leveyspiiri: 52-11N, Pituuspiiri: 113-54W, korkeus merenpinnasta: 905 m

Tämänhetkinen sää

Tämä raportti tehtiin 47 minuuttia sitten, kello 11.00 UTC
Tuuli 7 kn etelästä/lounaasta
Lämpötila -11°C
Kosteus 92%
Ilmanpaine 1014 hPa
Näkyvyys: 24.1 km
selkeää

METAR: CYQF 211100Z 21007KT 15SM SKC M11/M12 A2993 RMK SLP193

Aika: 04:47 (11:47 UTC)

Sääennuste

Tämä raportti tehtiin 8 minuuttia sitten, kello 11.39 UTC
Ennuste voimassa 21. päivästä klo 12 UTC - 21. päivään klo 24 UTC
Tuuli 6 kn etelästä/lounaasta
Näkyvyys: 10 km
selkeää
Todennäköisyys 30%
21. päivästä klo 12 UTC - 21. päivään klo 16 UTC
Näkyvyys: 0.8 km
jäätävää sumua
From 21. päivästä klo 2100 UTC
Tuuli 3 kn eri suunnista
Näkyvyys: 10 km
Hajanaisia pilviä 22000 ft:n korkeudessa

TAF: CYQF 211139Z 2112/2124 21006KT P6SM SKC PROB30 2112/2116 1/2SM FZFG FM212100 VRB03KT P6SM SCT220 RMK NXT FCST BY 211800Z

Säähavainnot ja -ennusteet yli 4000 lentoasemalta (METAR- ja TAF-raportit).

Käytössä olevat sääasemat on merkitty karttaan keltaisilla ja punaisilla pisteillä.

Aseta hiiri pisteen päälle nähdäksesi sääaseman nimen.

Klikkaa sitten nähdäksesi säähavainnot ja -ennusteet.

Kartan vaihtaminen: klikkaa mustalla rastilla varustettuja vihreitä pisteitä, niin voit zoomata sisään; viivalla varustettua vihreää pistettä, niin voit zoomata ulos tai vihreitä nuolia, niin pääset viereisille kartoille.


METAR-TAF: